Flugplatz Buckeburg Airport

Bericht für ETHB

vom 22.10. um 11:20 UTC

Wind 8 kt aus 220°

Sichtweite 10 km oder mehr

gering bewölkt in 1500 ft

aufgebrochene Bewölkung in 2800 ft

Temperatur 13.0°C

Taupunkt 9.0°C

Luftfeuchtigkeit 77%

Luftdruck 1024 hPa

ETHB 221120Z 22008KT 9999 FEW015 BKN028 13/09 Q1024 BLU BLU

Prognose für ETHB

vom 22.10. um 00:00 UTC

Zwischen 00:00 UTC und 00:00 UTC

Wind 8 kt aus 230°

Sichtweite 10 km oder mehr

keine signifikanten Wettererscheinungen

aufgelockert bewölkt in 1500 ft

aufgebrochene Bewölkung in 3000 ft

TAF ETHB 221004Z 2211/2220 23008KT 9999 NSW SCT015 BKN030
Impressum